sensor_id;sensor_type;location;lat;lon;timestamp;pressure;altitude;pressure_sealevel;temperature;humidity
4586;BME280;2305;50.118;8.952;2022-07-23T00:01:28;100422.94;;;23.80;100.00
4586;BME280;2305;50.118;8.952;2022-07-23T00:03:57;100414.44;;;23.76;100.00
4586;BME280;2305;50.118;8.952;2022-07-23T00:06:25;100406.81;;;23.73;100.00
4586;BME280;2305;50.118;8.952;2022-07-23T00:08:53;100411.16;;;23.68;100.00
4586;BME280;2305;50.118;8.952;2022-07-23T00:11:21;100407.44;;;23.62;100.00
4586;BME280;2305;50.118;8.952;2022-07-23T00:13:49;100404.72;;;23.56;100.00
4586;BME280;2305;50.118;8.952;2022-07-23T00:16:17;100405.56;;;23.50;100.00
4586;BME280;2305;50.118;8.952;2022-07-23T00:18:45;100402.44;;;23.46;100.00
4586;BME280;2305;50.118;8.952;2022-07-23T00:21:15;100395.84;;;23.42;100.00
4586;BME280;2305;50.118;8.952;2022-07-23T00:23:43;100397.06;;;23.40;100.00
4586;BME280;2305;50.118;8.952;2022-07-23T00:26:11;100389.38;;;23.37;100.00
4586;BME280;2305;50.118;8.952;2022-07-23T00:28:39;100393.97;;;23.36;100.00
4586;BME280;2305;50.118;8.952;2022-07-23T00:31:07;100398.50;;;23.36;100.00
4586;BME280;2305;50.118;8.952;2022-07-23T00:33:36;100401.19;;;23.29;100.00
4586;BME280;2305;50.118;8.952;2022-07-23T00:36:04;100408.00;;;23.25;100.00
4586;BME280;2305;50.118;8.952;2022-07-23T00:38:34;100396.19;;;23.26;100.00
4586;BME280;2305;50.118;8.952;2022-07-23T00:41:02;100396.22;;;23.33;100.00
4586;BME280;2305;50.118;8.952;2022-07-23T00:43:30;100399.34;;;23.36;100.00
4586;BME280;2305;50.118;8.952;2022-07-23T00:45:58;100403.25;;;23.27;100.00
4586;BME280;2305;50.118;8.952;2022-07-23T00:48:26;100404.69;;;23.23;100.00
4586;BME280;2305;50.118;8.952;2022-07-23T00:50:54;100403.22;;;23.21;100.00
4586;BME280;2305;50.118;8.952;2022-07-23T00:53:23;100403.84;;;23.16;100.00
4586;BME280;2305;50.118;8.952;2022-07-23T00:55:53;100402.56;;;23.12;100.00
4586;BME280;2305;50.118;8.952;2022-07-23T00:58:21;100408.38;;;23.16;100.00
4586;BME280;2305;50.118;8.952;2022-07-23T01:00:49;100408.81;;;23.19;100.00
4586;BME280;2305;50.118;8.952;2022-07-23T01:03:17;100401.38;;;23.21;100.00
4586;BME280;2305;50.118;8.952;2022-07-23T01:05:45;100400.53;;;23.21;100.00
4586;BME280;2305;50.118;8.952;2022-07-23T01:08:14;100386.50;;;23.19;100.00
4586;BME280;2305;50.118;8.952;2022-07-23T01:10:42;100376.50;;;23.13;100.00
4586;BME280;2305;50.118;8.952;2022-07-23T01:13:11;100383.72;;;23.06;100.00
4586;BME280;2305;50.118;8.952;2022-07-23T01:15:39;100391.78;;;22.99;100.00
4586;BME280;2305;50.118;8.952;2022-07-23T01:18:08;100396.09;;;22.94;100.00
4586;BME280;2305;50.118;8.952;2022-07-23T01:20:37;100402.31;;;22.94;100.00
4586;BME280;2305;50.118;8.952;2022-07-23T01:23:08;100411.41;;;22.93;100.00
4586;BME280;2305;50.118;8.952;2022-07-23T01:25:47;100409.97;;;22.91;100.00
4586;BME280;2305;50.118;8.952;2022-07-23T01:28:16;100407.69;;;22.88;100.00
4586;BME280;2305;50.118;8.952;2022-07-23T01:30:44;100410.94;;;22.83;100.00
4586;BME280;2305;50.118;8.952;2022-07-23T01:33:12;100422.53;;;22.77;100.00
4586;BME280;2305;50.118;8.952;2022-07-23T01:35:43;100438.41;;;22.72;100.00
4586;BME280;2305;50.118;8.952;2022-07-23T01:38:18;100434.06;;;22.71;100.00
4586;BME280;2305;50.118;8.952;2022-07-23T01:40:49;100435.97;;;22.77;100.00
4586;BME280;2305;50.118;8.952;2022-07-23T01:43:22;100442.59;;;22.81;100.00
4586;BME280;2305;50.118;8.952;2022-07-23T01:45:53;100443.19;;;22.77;100.00
4586;BME280;2305;50.118;8.952;2022-07-23T01:48:21;100434.94;;;22.78;100.00
4586;BME280;2305;50.118;8.952;2022-07-23T01:51:17;100435.13;;;22.77;100.00
4586;BME280;2305;50.118;8.952;2022-07-23T01:53:55;100426.44;;;22.75;100.00
4586;BME280;2305;50.118;8.952;2022-07-23T01:56:23;100425.78;;;22.73;100.00
4586;BME280;2305;50.118;8.952;2022-07-23T01:58:51;100420.66;;;22.71;100.00
4586;BME280;2305;50.118;8.952;2022-07-23T02:01:19;100404.91;;;22.68;100.00
4586;BME280;2305;50.118;8.952;2022-07-23T02:03:48;100399.94;;;22.65;100.00
4586;BME280;2305;50.118;8.952;2022-07-23T02:06:16;100408.19;;;22.64;100.00
4586;BME280;2305;50.118;8.952;2022-07-23T02:08:44;100404.47;;;22.58;100.00
4586;BME280;2305;50.118;8.952;2022-07-23T02:11:13;100391.19;;;22.50;100.00
4586;BME280;2305;50.118;8.952;2022-07-23T02:13:41;100381.25;;;22.44;100.00
4586;BME280;2305;50.118;8.952;2022-07-23T02:16:09;100379.94;;;22.40;100.00
4586;BME280;2305;50.118;8.952;2022-07-23T02:18:39;100381.78;;;22.33;100.00
4586;BME280;2305;50.118;8.952;2022-07-23T02:21:07;100391.88;;;22.25;100.00
4586;BME280;2305;50.118;8.952;2022-07-23T02:23:35;100416.81;;;22.19;100.00
4586;BME280;2305;50.118;8.952;2022-07-23T02:26:04;100427.31;;;22.14;100.00
4586;BME280;2305;50.118;8.952;2022-07-23T02:28:33;100441.94;;;22.11;100.00
4586;BME280;2305;50.118;8.952;2022-07-23T02:31:04;100443.75;;;22.04;100.00
4586;BME280;2305;50.118;8.952;2022-07-23T02:33:33;100456.63;;;21.88;100.00
4586;BME280;2305;50.118;8.952;2022-07-23T02:36:01;100457.13;;;21.70;100.00
4586;BME280;2305;50.118;8.952;2022-07-23T02:38:29;100458.66;;;21.65;100.00
4586;BME280;2305;50.118;8.952;2022-07-23T02:40:58;100452.97;;;21.68;100.00
4586;BME280;2305;50.118;8.952;2022-07-23T02:43:28;100449.94;;;21.56;100.00
4586;BME280;2305;50.118;8.952;2022-07-23T02:46:00;100444.81;;;21.40;100.00
4586;BME280;2305;50.118;8.952;2022-07-23T02:48:29;100440.94;;;21.43;100.00
4586;BME280;2305;50.118;8.952;2022-07-23T02:51:00;100442.22;;;21.47;100.00
4586;BME280;2305;50.118;8.952;2022-07-23T02:53:36;100437.09;;;21.52;100.00
4586;BME280;2305;50.118;8.952;2022-07-23T02:56:04;100446.59;;;21.54;100.00
4586;BME280;2305;50.118;8.952;2022-07-23T02:58:32;100441.06;;;21.56;100.00
4586;BME280;2305;50.118;8.952;2022-07-23T03:01:02;100440.03;;;21.57;100.00
4586;BME280;2305;50.118;8.952;2022-07-23T03:03:31;100441.69;;;21.58;100.00
4586;BME280;2305;50.118;8.952;2022-07-23T03:05:59;100441.41;;;21.67;100.00
4586;BME280;2305;50.118;8.952;2022-07-23T03:08:27;100438.97;;;21.72;100.00
4586;BME280;2305;50.118;8.952;2022-07-23T03:10:55;100448.94;;;21.78;100.00
4586;BME280;2305;50.118;8.952;2022-07-23T03:13:23;100456.97;;;21.78;100.00
4586;BME280;2305;50.118;8.952;2022-07-23T03:15:52;100450.06;;;21.69;100.00
4586;BME280;2305;50.118;8.952;2022-07-23T03:18:22;100452.75;;;21.69;100.00
4586;BME280;2305;50.118;8.952;2022-07-23T03:20:50;100460.34;;;21.66;100.00
4586;BME280;2305;50.118;8.952;2022-07-23T03:23:18;100456.47;;;21.68;100.00
4586;BME280;2305;50.118;8.952;2022-07-23T03:25:46;100464.63;;;21.81;100.00
4586;BME280;2305;50.118;8.952;2022-07-23T03:28:20;100475.31;;;21.75;100.00
4586;BME280;2305;50.118;8.952;2022-07-23T03:30:48;100467.00;;;21.70;100.00
4586;BME280;2305;50.118;8.952;2022-07-23T03:33:19;100466.25;;;21.76;100.00
4586;BME280;2305;50.118;8.952;2022-07-23T03:35:49;100462.50;;;21.70;100.00
4586;BME280;2305;50.118;8.952;2022-07-23T03:38:24;100469.09;;;21.74;100.00
4586;BME280;2305;50.118;8.952;2022-07-23T03:40:53;100467.00;;;21.70;100.00
4586;BME280;2305;50.118;8.952;2022-07-23T03:43:21;100460.44;;;21.72;100.00
4586;BME280;2305;50.118;8.952;2022-07-23T03:45:51;100464.97;;;21.72;100.00
4586;BME280;2305;50.118;8.952;2022-07-23T03:48:19;100469.69;;;21.70;100.00
4586;BME280;2305;50.118;8.952;2022-07-23T03:50:48;100480.03;;;21.73;100.00
4586;BME280;2305;50.118;8.952;2022-07-23T03:53:16;100483.94;;;21.70;100.00
4586;BME280;2305;50.118;8.952;2022-07-23T03:55:45;100481.44;;;21.69;100.00
4586;BME280;2305;50.118;8.952;2022-07-23T03:58:13;100478.13;;;21.67;100.00
4586;BME280;2305;50.118;8.952;2022-07-23T04:00:44;100482.66;;;21.66;100.00
4586;BME280;2305;50.118;8.952;2022-07-23T04:03:12;100485.25;;;21.60;100.00
4586;BME280;2305;50.118;8.952;2022-07-23T04:05:41;100492.41;;;21.53;100.00
4586;BME280;2305;50.118;8.952;2022-07-23T04:08:14;100491.97;;;21.49;100.00
4586;BME280;2305;50.118;8.952;2022-07-23T04:10:47;100487.81;;;21.47;100.00
4586;BME280;2305;50.118;8.952;2022-07-23T04:13:15;100484.38;;;21.53;100.00
4586;BME280;2305;50.118;8.952;2022-07-23T04:15:43;100500.31;;;21.61;100.00
4586;BME280;2305;50.118;8.952;2022-07-23T04:18:11;100497.25;;;21.64;100.00
4586;BME280;2305;50.118;8.952;2022-07-23T04:20:48;100495.94;;;21.74;100.00
4586;BME280;2305;50.118;8.952;2022-07-23T04:23:17;100483.66;;;21.65;100.00
4586;BME280;2305;50.118;8.952;2022-07-23T04:25:47;100488.03;;;21.66;100.00
4586;BME280;2305;50.118;8.952;2022-07-23T04:28:15;100490.31;;;21.69;100.00
4586;BME280;2305;50.118;8.952;2022-07-23T04:30:43;100503.94;;;21.68;100.00
4586;BME280;2305;50.118;8.952;2022-07-23T04:33:12;100514.00;;;21.66;100.00
4586;BME280;2305;50.118;8.952;2022-07-23T04:35:44;100516.88;;;21.64;100.00
4586;BME280;2305;50.118;8.952;2022-07-23T04:38:19;100508.75;;;21.58;100.00
4586;BME280;2305;50.118;8.952;2022-07-23T04:40:50;100520.44;;;21.50;100.00
4586;BME280;2305;50.118;8.952;2022-07-23T04:43:19;100517.09;;;21.48;100.00
4586;BME280;2305;50.118;8.952;2022-07-23T04:45:49;100518.78;;;21.49;100.00
4586;BME280;2305;50.118;8.952;2022-07-23T04:48:18;100527.47;;;21.51;100.00
4586;BME280;2305;50.118;8.952;2022-07-23T04:50:51;100537.16;;;21.52;100.00
4586;BME280;2305;50.118;8.952;2022-07-23T04:53:23;100542.13;;;21.55;100.00
4586;BME280;2305;50.118;8.952;2022-07-23T04:55:55;100535.09;;;21.54;100.00
4586;BME280;2305;50.118;8.952;2022-07-23T04:58:23;100532.69;;;21.59;100.00
4586;BME280;2305;50.118;8.952;2022-07-23T05:00:51;100526.94;;;21.62;100.00
4586;BME280;2305;50.118;8.952;2022-07-23T05:03:20;100535.66;;;21.64;100.00
4586;BME280;2305;50.118;8.952;2022-07-23T05:05:47;100550.63;;;21.73;100.00
4586;BME280;2305;50.118;8.952;2022-07-23T05:08:17;100561.63;;;21.78;100.00
4586;BME280;2305;50.118;8.952;2022-07-23T05:10:51;100561.50;;;21.86;100.00
4586;BME280;2305;50.118;8.952;2022-07-23T05:13:20;100562.56;;;21.92;100.00
4586;BME280;2305;50.118;8.952;2022-07-23T05:15:50;100560.50;;;21.94;100.00
4586;BME280;2305;50.118;8.952;2022-07-23T05:18:19;100558.28;;;21.97;100.00
4586;BME280;2305;50.118;8.952;2022-07-23T05:20:47;100559.31;;;21.96;100.00
4586;BME280;2305;50.118;8.952;2022-07-23T05:23:18;100566.91;;;21.93;100.00
4586;BME280;2305;50.118;8.952;2022-07-23T05:25:48;100559.31;;;21.96;100.00
4586;BME280;2305;50.118;8.952;2022-07-23T05:28:43;100566.28;;;21.91;100.00
4586;BME280;2305;50.118;8.952;2022-07-23T05:31:42;100574.91;;;21.86;100.00
4586;BME280;2305;50.118;8.952;2022-07-23T05:34:10;100576.13;;;21.84;100.00
4586;BME280;2305;50.118;8.952;2022-07-23T05:36:44;100577.50;;;21.80;100.00
4586;BME280;2305;50.118;8.952;2022-07-23T05:39:12;100571.91;;;21.75;100.00
4586;BME280;2305;50.118;8.952;2022-07-23T05:41:40;100568.38;;;21.74;100.00
4586;BME280;2305;50.118;8.952;2022-07-23T05:44:12;100571.25;;;21.73;100.00
4586;BME280;2305;50.118;8.952;2022-07-23T05:46:42;100579.94;;;21.75;100.00
4586;BME280;2305;50.118;8.952;2022-07-23T05:49:16;100582.25;;;21.78;100.00
4586;BME280;2305;50.118;8.952;2022-07-23T05:52:24;100589.72;;;21.82;100.00
4586;BME280;2305;50.118;8.952;2022-07-23T05:55:10;100596.81;;;21.90;100.00
4586;BME280;2305;50.118;8.952;2022-07-23T05:57:40;100605.91;;;21.89;100.00
4586;BME280;2305;50.118;8.952;2022-07-23T06:00:13;100608.00;;;21.93;100.00
4586;BME280;2305;50.118;8.952;2022-07-23T06:02:43;100606.81;;;21.96;100.00
4586;BME280;2305;50.118;8.952;2022-07-23T06:05:12;100597.31;;;22.00;100.00
4586;BME280;2305;50.118;8.952;2022-07-23T06:07:40;100592.41;;;22.03;100.00
4586;BME280;2305;50.118;8.952;2022-07-23T06:10:09;100592.50;;;22.10;100.00
4586;BME280;2305;50.118;8.952;2022-07-23T06:12:37;100593.38;;;22.17;100.00
4586;BME280;2305;50.118;8.952;2022-07-23T06:15:07;100591.59;;;22.24;100.00
4586;BME280;2305;50.118;8.952;2022-07-23T06:17:39;100588.50;;;22.27;100.00
4586;BME280;2305;50.118;8.952;2022-07-23T06:20:09;100591.63;;;22.30;100.00
4586;BME280;2305;50.118;8.952;2022-07-23T06:22:40;100597.44;;;22.34;100.00
4586;BME280;2305;50.118;8.952;2022-07-23T06:25:08;100599.88;;;22.29;100.00
4586;BME280;2305;50.118;8.952;2022-07-23T06:27:45;100615.34;;;22.27;100.00
4586;BME280;2305;50.118;8.952;2022-07-23T06:30:16;100620.00;;;22.18;100.00
4586;BME280;2305;50.118;8.952;2022-07-23T06:32:47;100612.34;;;22.15;100.00
4586;BME280;2305;50.118;8.952;2022-07-23T06:35:16;100615.03;;;22.15;100.00
4586;BME280;2305;50.118;8.952;2022-07-23T06:37:46;100628.06;;;22.18;100.00
4586;BME280;2305;50.118;8.952;2022-07-23T06:40:15;100620.22;;;22.17;100.00
4586;BME280;2305;50.118;8.952;2022-07-23T06:42:43;100632.19;;;22.14;100.00
4586;BME280;2305;50.118;8.952;2022-07-23T06:45:16;100631.34;;;22.14;100.00
4586;BME280;2305;50.118;8.952;2022-07-23T06:47:48;100626.84;;;22.21;100.00
4586;BME280;2305;50.118;8.952;2022-07-23T06:50:18;100627.13;;;22.26;100.00
4586;BME280;2305;50.118;8.952;2022-07-23T06:52:50;100617.41;;;22.25;100.00
4586;BME280;2305;50.118;8.952;2022-07-23T06:55:18;100622.78;;;22.25;100.00
4586;BME280;2305;50.118;8.952;2022-07-23T06:57:46;100614.47;;;22.20;100.00
4586;BME280;2305;50.118;8.952;2022-07-23T07:00:16;100611.72;;;22.13;100.00
4586;BME280;2305;50.118;8.952;2022-07-23T07:02:43;100619.13;;;22.11;100.00
4586;BME280;2305;50.118;8.952;2022-07-23T07:05:13;100625.97;;;22.14;100.00
4586;BME280;2305;50.118;8.952;2022-07-23T07:07:41;100631.16;;;22.15;100.00
4586;BME280;2305;50.118;8.952;2022-07-23T07:10:09;100634.09;;;22.20;100.00
4586;BME280;2305;50.118;8.952;2022-07-23T07:12:44;100628.97;;;22.25;100.00
4586;BME280;2305;50.118;8.952;2022-07-23T07:15:12;100626.13;;;22.33;100.00
4586;BME280;2305;50.118;8.952;2022-07-23T07:17:40;100624.81;;;22.44;100.00
4586;BME280;2305;50.118;8.952;2022-07-23T07:20:09;100629.69;;;22.55;100.00
4586;BME280;2305;50.118;8.952;2022-07-23T07:22:39;100634.88;;;22.56;100.00
4586;BME280;2305;50.118;8.952;2022-07-23T07:25:07;100642.38;;;22.67;100.00
4586;BME280;2305;50.118;8.952;2022-07-23T07:27:35;100635.06;;;22.82;100.00
4586;BME280;2305;50.118;8.952;2022-07-23T07:30:05;100643.13;;;22.82;100.00
4586;BME280;2305;50.118;8.952;2022-07-23T07:32:33;100650.03;;;22.91;100.00
4586;BME280;2305;50.118;8.952;2022-07-23T07:35:23;100649.06;;;23.05;100.00
4586;BME280;2305;50.118;8.952;2022-07-23T07:37:52;100654.31;;;23.13;100.00
4586;BME280;2305;50.118;8.952;2022-07-23T07:40:20;100659.13;;;23.18;100.00
4586;BME280;2305;50.118;8.952;2022-07-23T07:42:50;100660.00;;;23.25;100.00
4586;BME280;2305;50.118;8.952;2022-07-23T07:45:20;100663.72;;;23.30;100.00
4586;BME280;2305;50.118;8.952;2022-07-23T07:47:48;100659.75;;;23.26;100.00
4586;BME280;2305;50.118;8.952;2022-07-23T07:50:16;100666.44;;;23.37;100.00
4586;BME280;2305;50.118;8.952;2022-07-23T07:52:49;100665.47;;;23.44;100.00
4586;BME280;2305;50.118;8.952;2022-07-23T07:55:19;100662.59;;;23.52;100.00
4586;BME280;2305;50.118;8.952;2022-07-23T07:57:47;100672.38;;;23.60;100.00
4586;BME280;2305;50.118;8.952;2022-07-23T08:00:16;100672.81;;;23.63;100.00
4586;BME280;2305;50.118;8.952;2022-07-23T08:02:47;100676.38;;;23.70;100.00
4586;BME280;2305;50.118;8.952;2022-07-23T08:05:20;100681.34;;;23.73;100.00
4586;BME280;2305;50.118;8.952;2022-07-23T08:07:53;100672.03;;;23.76;100.00
4586;BME280;2305;50.118;8.952;2022-07-23T08:10:23;100675.16;;;23.79;100.00
4586;BME280;2305;50.118;8.952;2022-07-23T08:12:53;100675.94;;;23.73;100.00
4586;BME280;2305;50.118;8.952;2022-07-23T08:15:24;100677.22;;;23.77;100.00
4586;BME280;2305;50.118;8.952;2022-07-23T08:17:53;100683.41;;;23.78;100.00
4586;BME280;2305;50.118;8.952;2022-07-23T08:20:23;100689.66;;;23.85;100.00
4586;BME280;2305;50.118;8.952;2022-07-23T08:22:52;100688.88;;;23.91;100.00
4586;BME280;2305;50.118;8.952;2022-07-23T08:25:24;100700.06;;;23.88;100.00
4586;BME280;2305;50.118;8.952;2022-07-23T08:27:53;100690.13;;;23.88;100.00
4586;BME280;2305;50.118;8.952;2022-07-23T08:30:21;100691.19;;;24.00;100.00
4586;BME280;2305;50.118;8.952;2022-07-23T08:32:51;100696.44;;;24.21;100.00
4586;BME280;2305;50.118;8.952;2022-07-23T08:35:29;100693.16;;;24.45;100.00
4586;BME280;2305;50.118;8.952;2022-07-23T08:37:58;100690.94;;;24.68;100.00
4586;BME280;2305;50.118;8.952;2022-07-23T08:40:29;100689.69;;;24.83;100.00
4586;BME280;2305;50.118;8.952;2022-07-23T08:42:59;100694.25;;;24.96;100.00
4586;BME280;2305;50.118;8.952;2022-07-23T08:45:27;100691.53;;;25.09;100.00
4586;BME280;2305;50.118;8.952;2022-07-23T08:47:57;100687.97;;;25.21;100.00
4586;BME280;2305;50.118;8.952;2022-07-23T08:50:32;100689.06;;;25.27;100.00
4586;BME280;2305;50.118;8.952;2022-07-23T08:53:06;100690.28;;;25.18;100.00
4586;BME280;2305;50.118;8.952;2022-07-23T08:55:36;100702.53;;;25.07;100.00
4586;BME280;2305;50.118;8.952;2022-07-23T08:58:04;100694.88;;;24.98;100.00
4586;BME280;2305;50.118;8.952;2022-07-23T09:00:32;100700.69;;;24.95;100.00
4586;BME280;2305;50.118;8.952;2022-07-23T09:03:03;100698.19;;;25.00;100.00
4586;BME280;2305;50.118;8.952;2022-07-23T09:05:33;100695.91;;;25.03;100.00
4586;BME280;2305;50.118;8.952;2022-07-23T09:08:06;100693.84;;;25.12;100.00
4586;BME280;2305;50.118;8.952;2022-07-23T09:10:45;100686.97;;;25.16;100.00
4586;BME280;2305;50.118;8.952;2022-07-23T09:13:34;100685.91;;;25.17;100.00
4586;BME280;2305;50.118;8.952;2022-07-23T09:16:05;100679.88;;;25.21;100.00
4586;BME280;2305;50.118;8.952;2022-07-23T09:18:37;100690.31;;;25.24;100.00
4586;BME280;2305;50.118;8.952;2022-07-23T09:21:18;100682.19;;;25.31;100.00
4586;BME280;2305;50.118;8.952;2022-07-23T09:23:50;100683.84;;;25.38;100.00
4586;BME280;2305;50.118;8.952;2022-07-23T09:29:07;100685.66;;;25.57;100.00
4586;BME280;2305;50.118;8.952;2022-07-23T09:31:47;100688.53;;;25.62;100.00
4586;BME280;2305;50.118;8.952;2022-07-23T09:34:18;100686.44;;;25.71;100.00
4586;BME280;2305;50.118;8.952;2022-07-23T09:36:51;100690.16;;;25.76;100.00
4586;BME280;2305;50.118;8.952;2022-07-23T09:39:25;100684.09;;;25.81;100.00
4586;BME280;2305;50.118;8.952;2022-07-23T09:41:58;100681.38;;;25.87;100.00
4586;BME280;2305;50.118;8.952;2022-07-23T09:44:26;100687.38;;;25.96;100.00
4586;BME280;2305;50.118;8.952;2022-07-23T09:46:59;100679.66;;;26.06;100.00
4586;BME280;2305;50.118;8.952;2022-07-23T09:49:29;100689.38;;;26.13;100.00
4586;BME280;2305;50.118;8.952;2022-07-23T09:51:59;100682.69;;;26.22;100.00
4586;BME280;2305;50.118;8.952;2022-07-23T09:54:33;100687.59;;;26.32;100.00
4586;BME280;2305;50.118;8.952;2022-07-23T09:57:06;100692.31;;;26.43;100.00
4586;BME280;2305;50.118;8.952;2022-07-23T09:59:38;100701.84;;;26.45;100.00
4586;BME280;2305;50.118;8.952;2022-07-23T10:02:08;100691.84;;;26.15;100.00
4586;BME280;2305;50.118;8.952;2022-07-23T10:04:52;100688.34;;;26.14;100.00
4586;BME280;2305;50.118;8.952;2022-07-23T10:07:37;100683.94;;;26.20;100.00
4586;BME280;2305;50.118;8.952;2022-07-23T10:10:32;100684.00;;;26.38;100.00
4586;BME280;2305;50.118;8.952;2022-07-23T10:13:21;100691.19;;;26.57;100.00
4586;BME280;2305;50.118;8.952;2022-07-23T10:16:13;100689.94;;;26.59;100.00
4586;BME280;2305;50.118;8.952;2022-07-23T10:18:53;100683.88;;;26.64;100.00
4586;BME280;2305;50.118;8.952;2022-07-23T10:21:38;100686.28;;;26.72;100.00
4586;BME280;2305;50.118;8.952;2022-07-23T10:24:18;100684.97;;;26.81;100.00
4586;BME280;2305;50.118;8.952;2022-07-23T10:26:58;100684.69;;;26.89;100.00
4586;BME280;2305;50.118;8.952;2022-07-23T10:29:42;100688.97;;;26.78;100.00
4586;BME280;2305;50.118;8.952;2022-07-23T10:32:25;100687.06;;;26.79;100.00
4586;BME280;2305;50.118;8.952;2022-07-23T10:35:03;100687.25;;;26.84;100.00
4586;BME280;2305;50.118;8.952;2022-07-23T10:37:36;100686.00;;;26.80;100.00
4586;BME280;2305;50.118;8.952;2022-07-23T10:40:10;100691.78;;;26.90;100.00
4586;BME280;2305;50.118;8.952;2022-07-23T10:42:39;100684.81;;;27.00;100.00
4586;BME280;2305;50.118;8.952;2022-07-23T10:45:29;100689.25;;;27.13;100.00
4586;BME280;2305;50.118;8.952;2022-07-23T10:48:12;100692.69;;;27.26;97.82
4586;BME280;2305;50.118;8.952;2022-07-23T10:50:42;100701.19;;;27.30;99.81
4586;BME280;2305;50.118;8.952;2022-07-23T10:53:15;100691.13;;;27.37;100.00
4586;BME280;2305;50.118;8.952;2022-07-23T10:55:51;100685.66;;;27.43;100.00
4586;BME280;2305;50.118;8.952;2022-07-23T10:58:22;100689.50;;;27.54;100.00
4586;BME280;2305;50.118;8.952;2022-07-23T11:00:51;100698.28;;;27.67;99.09
4586;BME280;2305;50.118;8.952;2022-07-23T11:03:34;100687.13;;;27.75;93.70
4586;BME280;2305;50.118;8.952;2022-07-23T11:06:06;100685.19;;;27.82;92.24
4586;BME280;2305;50.118;8.952;2022-07-23T11:08:35;100685.94;;;27.89;92.62
4586;BME280;2305;50.118;8.952;2022-07-23T11:11:10;100676.22;;;28.00;92.07
4586;BME280;2305;50.118;8.952;2022-07-23T11:13:45;100691.19;;;28.02;89.02
4586;BME280;2305;50.118;8.952;2022-07-23T11:16:23;100677.97;;;27.94;86.33
4586;BME280;2305;50.118;8.952;2022-07-23T11:19:03;100674.34;;;28.00;90.01
4586;BME280;2305;50.118;8.952;2022-07-23T11:21:48;100683.69;;;28.16;91.38
4586;BME280;2305;50.118;8.952;2022-07-23T11:24:20;100684.78;;;28.26;89.39
4586;BME280;2305;50.118;8.952;2022-07-23T11:26:58;100683.06;;;28.32;90.62
4586;BME280;2305;50.118;8.952;2022-07-23T11:29:46;100682.41;;;28.36;89.02
4586;BME280;2305;50.118;8.952;2022-07-23T11:32:34;100671.56;;;28.36;82.85
4586;BME280;2305;50.118;8.952;2022-07-23T11:35:22;100669.16;;;28.28;86.34
4586;BME280;2305;50.118;8.952;2022-07-23T11:37:52;100672.22;;;28.32;87.37
4586;BME280;2305;50.118;8.952;2022-07-23T11:40:25;100671.66;;;28.41;93.13
4586;BME280;2305;50.118;8.952;2022-07-23T11:42:57;100668.53;;;28.56;91.59
4586;BME280;2305;50.118;8.952;2022-07-23T11:45:30;100661.59;;;28.60;89.12
4586;BME280;2305;50.118;8.952;2022-07-23T11:48:01;100660.75;;;28.71;92.48
4586;BME280;2305;50.118;8.952;2022-07-23T11:50:30;100654.19;;;28.90;90.35
4586;BME280;2305;50.118;8.952;2022-07-23T11:53:02;100668.25;;;29.10;91.59
4586;BME280;2305;50.118;8.952;2022-07-23T11:55:31;100655.97;;;29.19;80.82
4586;BME280;2305;50.118;8.952;2022-07-23T11:57:59;100654.66;;;29.33;80.52
4586;BME280;2305;50.118;8.952;2022-07-23T12:00:29;100651.56;;;29.41;81.80
4586;BME280;2305;50.118;8.952;2022-07-23T12:03:03;100653.06;;;29.48;77.67
4586;BME280;2305;50.118;8.952;2022-07-23T12:05:34;100658.28;;;29.50;72.90
4586;BME280;2305;50.118;8.952;2022-07-23T12:08:04;100655.44;;;29.45;71.87
4586;BME280;2305;50.118;8.952;2022-07-23T12:10:35;100663.63;;;29.56;68.97
4586;BME280;2305;50.118;8.952;2022-07-23T12:13:05;100661.59;;;29.52;65.77
4586;BME280;2305;50.118;8.952;2022-07-23T12:15:35;100651.06;;;29.44;75.60
4586;BME280;2305;50.118;8.952;2022-07-23T12:18:08;100651.41;;;29.59;77.79
4586;BME280;2305;50.118;8.952;2022-07-23T12:20:39;100642.03;;;29.78;76.90
4586;BME280;2305;50.118;8.952;2022-07-23T12:23:10;100638.53;;;29.94;71.72
4586;BME280;2305;50.118;8.952;2022-07-23T12:25:43;100640.91;;;30.02;69.18
4586;BME280;2305;50.118;8.952;2022-07-23T12:28:13;100636.59;;;30.06;65.13
4586;BME280;2305;50.118;8.952;2022-07-23T12:30:43;100636.00;;;30.15;72.39
4586;BME280;2305;50.118;8.952;2022-07-23T12:33:15;100631.06;;;30.28;70.71
4586;BME280;2305;50.118;8.952;2022-07-23T12:35:49;100633.72;;;30.40;73.97
4586;BME280;2305;50.118;8.952;2022-07-23T12:38:20;100627.22;;;30.57;73.38
4586;BME280;2305;50.118;8.952;2022-07-23T12:40:50;100625.41;;;30.79;73.02
4586;BME280;2305;50.118;8.952;2022-07-23T12:43:22;100629.03;;;31.01;72.15
4586;BME280;2305;50.118;8.952;2022-07-23T12:45:51;100637.25;;;31.06;68.46
4586;BME280;2305;50.118;8.952;2022-07-23T12:48:23;100640.91;;;31.12;60.78
4586;BME280;2305;50.118;8.952;2022-07-23T12:50:57;100637.34;;;31.11;56.58
4586;BME280;2305;50.118;8.952;2022-07-23T12:53:27;100637.91;;;31.13;64.02
4586;BME280;2305;50.118;8.952;2022-07-23T12:56:05;100638.91;;;31.24;58.81
4586;BME280;2305;50.118;8.952;2022-07-23T12:58:43;100633.09;;;31.37;62.31
4586;BME280;2305;50.118;8.952;2022-07-23T13:01:28;100636.56;;;31.54;61.09
4586;BME280;2305;50.118;8.952;2022-07-23T13:04:01;100634.97;;;31.74;65.05
4586;BME280;2305;50.118;8.952;2022-07-23T13:06:40;100633.19;;;31.85;69.93
4586;BME280;2305;50.118;8.952;2022-07-23T13:09:11;100627.00;;;31.94;70.01
4586;BME280;2305;50.118;8.952;2022-07-23T13:11:42;100629.63;;;32.11;68.35
4586;BME280;2305;50.118;8.952;2022-07-23T13:14:11;100634.50;;;32.09;56.73
4586;BME280;2305;50.118;8.952;2022-07-23T13:16:44;100640.44;;;32.01;50.34
4586;BME280;2305;50.118;8.952;2022-07-23T13:19:16;100641.91;;;31.65;52.75
4586;BME280;2305;50.118;8.952;2022-07-23T13:21:45;100638.03;;;31.61;50.08
4586;BME280;2305;50.118;8.952;2022-07-23T13:24:13;100640.13;;;31.54;59.05
4586;BME280;2305;50.118;8.952;2022-07-23T13:26:41;100642.47;;;31.67;57.79
4586;BME280;2305;50.118;8.952;2022-07-23T13:29:09;100634.41;;;31.99;58.11